sensor_id;sensor_type;location;lat;lon;timestamp;P1;durP1;ratioP1;P2;durP2;ratioP2
16401;SDS011;8310;44.626;11.176;2023-04-12T00:00:28;9.02;;;8.27;;
16401;SDS011;8310;44.626;11.176;2023-04-12T00:02:56;8.88;;;8.07;;
16401;SDS011;8310;44.626;11.176;2023-04-12T00:05:27;8.77;;;7.97;;
16401;SDS011;8310;44.626;11.176;2023-04-12T00:07:57;9.57;;;8.68;;
16401;SDS011;8310;44.626;11.176;2023-04-12T00:10:26;9.15;;;8.25;;
16401;SDS011;8310;44.626;11.176;2023-04-12T00:12:54;8.90;;;8.00;;
16401;SDS011;8310;44.626;11.176;2023-04-12T00:15:22;9.30;;;8.40;;
16401;SDS011;8310;44.626;11.176;2023-04-12T00:17:49;9.02;;;8.13;;
16401;SDS011;8310;44.626;11.176;2023-04-12T00:20:19;9.25;;;8.40;;
16401;SDS011;8310;44.626;11.176;2023-04-12T00:22:47;9.63;;;8.70;;
16401;SDS011;8310;44.626;11.176;2023-04-12T00:25:19;9.40;;;8.50;;
16401;SDS011;8310;44.626;11.176;2023-04-12T00:27:47;9.68;;;8.48;;
16401;SDS011;8310;44.626;11.176;2023-04-12T00:30:14;9.25;;;8.45;;
16401;SDS011;8310;44.626;11.176;2023-04-12T00:32:42;10.13;;;9.13;;
16401;SDS011;8310;44.626;11.176;2023-04-12T00:35:10;10.40;;;9.50;;
16401;SDS011;8310;44.626;11.176;2023-04-12T00:37:37;9.20;;;8.30;;
16401;SDS011;8310;44.626;11.176;2023-04-12T00:40:05;12.27;;;9.55;;
16401;SDS011;8310;44.626;11.176;2023-04-12T00:42:36;10.48;;;9.25;;
16401;SDS011;8310;44.626;11.176;2023-04-12T00:45:04;9.60;;;8.57;;
16401;SDS011;8310;44.626;11.176;2023-04-12T00:47:33;9.70;;;8.73;;
16401;SDS011;8310;44.626;11.176;2023-04-12T00:50:03;10.65;;;9.65;;
16401;SDS011;8310;44.626;11.176;2023-04-12T00:52:32;9.60;;;8.60;;
16401;SDS011;8310;44.626;11.176;2023-04-12T00:55:00;9.93;;;8.75;;
16401;SDS011;8310;44.626;11.176;2023-04-12T00:57:29;9.30;;;8.52;;
16401;SDS011;8310;44.626;11.176;2023-04-12T01:00:01;10.05;;;8.50;;
16401;SDS011;8310;44.626;11.176;2023-04-12T01:02:30;10.07;;;9.10;;
16401;SDS011;8310;44.626;11.176;2023-04-12T01:04:59;10.02;;;9.00;;
16401;SDS011;8310;44.626;11.176;2023-04-12T01:07:30;9.93;;;8.95;;
16401;SDS011;8310;44.626;11.176;2023-04-12T01:10:12;9.57;;;8.75;;
16401;SDS011;8310;44.626;11.176;2023-04-12T01:12:51;9.88;;;8.98;;
16401;SDS011;8310;44.626;11.176;2023-04-12T01:15:41;9.73;;;8.73;;
16401;SDS011;8310;44.626;11.176;2023-04-12T01:18:18;9.75;;;8.85;;
16401;SDS011;8310;44.626;11.176;2023-04-12T01:20:52;10.13;;;9.07;;
16401;SDS011;8310;44.626;11.176;2023-04-12T01:23:33;9.60;;;8.80;;
16401;SDS011;8310;44.626;11.176;2023-04-12T01:26:13;10.70;;;9.57;;
16401;SDS011;8310;44.626;11.176;2023-04-12T01:28:58;10.73;;;9.30;;
16401;SDS011;8310;44.626;11.176;2023-04-12T01:31:29;9.57;;;8.65;;
16401;SDS011;8310;44.626;11.176;2023-04-12T01:33:58;9.52;;;8.63;;
16401;SDS011;8310;44.626;11.176;2023-04-12T01:36:28;11.48;;;9.93;;
16401;SDS011;8310;44.626;11.176;2023-04-12T01:38:57;10.85;;;8.60;;
16401;SDS011;8310;44.626;11.176;2023-04-12T01:41:26;8.63;;;7.80;;
16401;SDS011;8310;44.626;11.176;2023-04-12T01:43:54;8.63;;;7.85;;
16401;SDS011;8310;44.626;11.176;2023-04-12T01:46:23;9.50;;;8.60;;
16401;SDS011;8310;44.626;11.176;2023-04-12T01:48:52;10.65;;;8.90;;
16401;SDS011;8310;44.626;11.176;2023-04-12T01:51:24;9.52;;;8.65;;
16401;SDS011;8310;44.626;11.176;2023-04-12T01:54:00;9.85;;;8.85;;
16401;SDS011;8310;44.626;11.176;2023-04-12T01:56:35;9.75;;;8.75;;
16401;SDS011;8310;44.626;11.176;2023-04-12T01:59:05;10.23;;;8.95;;
16401;SDS011;8310;44.626;11.176;2023-04-12T02:01:36;9.48;;;8.55;;
16401;SDS011;8310;44.626;11.176;2023-04-12T02:04:04;9.98;;;8.98;;
16401;SDS011;8310;44.626;11.176;2023-04-12T02:06:33;8.85;;;8.00;;
16401;SDS011;8310;44.626;11.176;2023-04-12T02:09:02;9.00;;;8.10;;
16401;SDS011;8310;44.626;11.176;2023-04-12T02:11:30;9.07;;;8.27;;
16401;SDS011;8310;44.626;11.176;2023-04-12T02:13:58;9.90;;;8.98;;
16401;SDS011;8310;44.626;11.176;2023-04-12T02:16:26;10.27;;;9.05;;
16401;SDS011;8310;44.626;11.176;2023-04-12T02:18:57;9.70;;;8.80;;
16401;SDS011;8310;44.626;11.176;2023-04-12T02:21:26;10.32;;;8.68;;
16401;SDS011;8310;44.626;11.176;2023-04-12T02:23:53;9.60;;;8.60;;
16401;SDS011;8310;44.626;11.176;2023-04-12T02:26:20;10.18;;;9.27;;
16401;SDS011;8310;44.626;11.176;2023-04-12T02:28:49;12.60;;;9.52;;
16401;SDS011;8310;44.626;11.176;2023-04-12T02:31:16;10.52;;;9.45;;
16401;SDS011;8310;44.626;11.176;2023-04-12T02:33:44;10.55;;;9.48;;
16401;SDS011;8310;44.626;11.176;2023-04-12T02:36:13;9.55;;;8.65;;
16401;SDS011;8310;44.626;11.176;2023-04-12T02:38:40;10.13;;;9.13;;
16401;SDS011;8310;44.626;11.176;2023-04-12T02:41:07;10.18;;;9.27;;
16401;SDS011;8310;44.626;11.176;2023-04-12T02:43:34;10.52;;;9.60;;
16401;SDS011;8310;44.626;11.176;2023-04-12T02:46:03;11.18;;;10.00;;
16401;SDS011;8310;44.626;11.176;2023-04-12T02:48:32;11.75;;;10.18;;
16401;SDS011;8310;44.626;11.176;2023-04-12T02:50:59;11.52;;;10.43;;
16401;SDS011;8310;44.626;11.176;2023-04-12T02:53:29;11.43;;;9.60;;
16401;SDS011;8310;44.626;11.176;2023-04-12T02:55:56;11.90;;;10.80;;
16401;SDS011;8310;44.626;11.176;2023-04-12T02:58:25;12.88;;;10.77;;
16401;SDS011;8310;44.626;11.176;2023-04-12T03:00:52;13.23;;;11.65;;
16401;SDS011;8310;44.626;11.176;2023-04-12T03:03:22;11.65;;;10.45;;
16401;SDS011;8310;44.626;11.176;2023-04-12T03:05:50;12.60;;;10.90;;
16401;SDS011;8310;44.626;11.176;2023-04-12T03:08:18;11.93;;;10.60;;
16401;SDS011;8310;44.626;11.176;2023-04-12T03:10:47;12.48;;;11.25;;
16401;SDS011;8310;44.626;11.176;2023-04-12T03:13:14;14.15;;;11.20;;
16401;SDS011;8310;44.626;11.176;2023-04-12T03:15:42;12.88;;;11.52;;
16401;SDS011;8310;44.626;11.176;2023-04-12T03:18:09;11.75;;;10.55;;
16401;SDS011;8310;44.626;11.176;2023-04-12T03:20:37;12.27;;;10.85;;
16401;SDS011;8310;44.626;11.176;2023-04-12T03:23:05;13.23;;;11.82;;
16401;SDS011;8310;44.626;11.176;2023-04-12T03:25:33;13.32;;;12.00;;
16401;SDS011;8310;44.626;11.176;2023-04-12T03:28:04;13.38;;;11.98;;
16401;SDS011;8310;44.626;11.176;2023-04-12T03:30:31;13.95;;;11.75;;
16401;SDS011;8310;44.626;11.176;2023-04-12T03:32:59;12.68;;;11.27;;
16401;SDS011;8310;44.626;11.176;2023-04-12T03:35:27;12.93;;;11.63;;
16401;SDS011;8310;44.626;11.176;2023-04-12T03:37:54;11.35;;;10.27;;
16401;SDS011;8310;44.626;11.176;2023-04-12T03:40:22;13.00;;;11.70;;
16401;SDS011;8310;44.626;11.176;2023-04-12T03:42:49;12.88;;;11.52;;
16401;SDS011;8310;44.626;11.176;2023-04-12T03:45:19;13.43;;;11.30;;
16401;SDS011;8310;44.626;11.176;2023-04-12T03:47:46;11.90;;;10.77;;
16401;SDS011;8310;44.626;11.176;2023-04-12T03:50:15;10.68;;;9.70;;
16401;SDS011;8310;44.626;11.176;2023-04-12T03:52:43;12.10;;;10.80;;
16401;SDS011;8310;44.626;11.176;2023-04-12T03:55:12;12.52;;;11.32;;
16401;SDS011;8310;44.626;11.176;2023-04-12T03:57:42;12.95;;;11.05;;
16401;SDS011;8310;44.626;11.176;2023-04-12T04:00:11;12.43;;;11.18;;
16401;SDS011;8310;44.626;11.176;2023-04-12T04:02:40;12.57;;;10.68;;
16401;SDS011;8310;44.626;11.176;2023-04-12T04:05:08;12.40;;;11.20;;
16401;SDS011;8310;44.626;11.176;2023-04-12T04:07:37;13.43;;;11.15;;
16401;SDS011;8310;44.626;11.176;2023-04-12T04:10:05;12.95;;;11.45;;
16401;SDS011;8310;44.626;11.176;2023-04-12T04:12:33;11.77;;;10.68;;
16401;SDS011;8310;44.626;11.176;2023-04-12T04:15:01;12.10;;;10.93;;
16401;SDS011;8310;44.626;11.176;2023-04-12T04:17:29;16.15;;;13.00;;
16401;SDS011;8310;44.626;11.176;2023-04-12T04:19:59;12.82;;;11.52;;
16401;SDS011;8310;44.626;11.176;2023-04-12T04:22:26;13.63;;;11.85;;
16401;SDS011;8310;44.626;11.176;2023-04-12T04:24:54;17.00;;;12.02;;
16401;SDS011;8310;44.626;11.176;2023-04-12T04:27:22;12.80;;;11.48;;
16401;SDS011;8310;44.626;11.176;2023-04-12T04:29:51;12.63;;;11.27;;
16401;SDS011;8310;44.626;11.176;2023-04-12T04:32:18;12.02;;;10.88;;
16401;SDS011;8310;44.626;11.176;2023-04-12T04:34:45;11.55;;;10.45;;
16401;SDS011;8310;44.626;11.176;2023-04-12T04:37:19;12.73;;;11.43;;
16401;SDS011;8310;44.626;11.176;2023-04-12T04:39:49;11.75;;;10.65;;
16401;SDS011;8310;44.626;11.176;2023-04-12T04:42:17;13.50;;;11.57;;
16401;SDS011;8310;44.626;11.176;2023-04-12T04:44:45;12.98;;;11.57;;
16401;SDS011;8310;44.626;11.176;2023-04-12T04:47:15;13.95;;;11.57;;
16401;SDS011;8310;44.626;11.176;2023-04-12T04:49:43;12.75;;;11.55;;
16401;SDS011;8310;44.626;11.176;2023-04-12T04:52:12;13.05;;;11.73;;
16401;SDS011;8310;44.626;11.176;2023-04-12T04:54:42;11.40;;;10.32;;
16401;SDS011;8310;44.626;11.176;2023-04-12T04:57:10;12.88;;;11.57;;
16401;SDS011;8310;44.626;11.176;2023-04-12T04:59:38;13.50;;;11.52;;
16401;SDS011;8310;44.626;11.176;2023-04-12T05:02:06;14.30;;;12.13;;
16401;SDS011;8310;44.626;11.176;2023-04-12T05:04:34;13.57;;;11.50;;
16401;SDS011;8310;44.626;11.176;2023-04-12T05:07:03;12.13;;;10.82;;
16401;SDS011;8310;44.626;11.176;2023-04-12T05:09:31;13.82;;;12.43;;
16401;SDS011;8310;44.626;11.176;2023-04-12T05:12:00;14.38;;;12.07;;
16401;SDS011;8310;44.626;11.176;2023-04-12T05:14:28;17.88;;;13.18;;
16401;SDS011;8310;44.626;11.176;2023-04-12T05:16:56;17.85;;;12.43;;
16401;SDS011;8310;44.626;11.176;2023-04-12T05:19:24;15.38;;;12.88;;
16401;SDS011;8310;44.626;11.176;2023-04-12T05:21:52;23.17;;;15.57;;
16401;SDS011;8310;44.626;11.176;2023-04-12T05:24:19;21.35;;;13.15;;
16401;SDS011;8310;44.626;11.176;2023-04-12T05:26:47;20.23;;;12.52;;
16401;SDS011;8310;44.626;11.176;2023-04-12T05:29:17;16.13;;;12.10;;
16401;SDS011;8310;44.626;11.176;2023-04-12T05:31:44;13.98;;;12.60;;
16401;SDS011;8310;44.626;11.176;2023-04-12T05:34:12;15.38;;;13.82;;
16401;SDS011;8310;44.626;11.176;2023-04-12T05:36:40;16.77;;;12.80;;
16401;SDS011;8310;44.626;11.176;2023-04-12T05:39:07;15.35;;;13.52;;
16401;SDS011;8310;44.626;11.176;2023-04-12T05:41:35;18.27;;;14.00;;
16401;SDS011;8310;44.626;11.176;2023-04-12T05:44:02;16.08;;;14.07;;
16401;SDS011;8310;44.626;11.176;2023-04-12T05:46:32;15.70;;;14.10;;
16401;SDS011;8310;44.626;11.176;2023-04-12T05:49:00;15.30;;;13.80;;
16401;SDS011;8310;44.626;11.176;2023-04-12T05:51:28;15.32;;;12.85;;
16401;SDS011;8310;44.626;11.176;2023-04-12T05:53:55;14.98;;;12.85;;
16401;SDS011;8310;44.626;11.176;2023-04-12T05:56:23;15.98;;;14.18;;
16401;SDS011;8310;44.626;11.176;2023-04-12T05:58:51;15.13;;;13.52;;
16401;SDS011;8310;44.626;11.176;2023-04-12T06:01:18;16.63;;;13.82;;
16401;SDS011;8310;44.626;11.176;2023-04-12T06:03:48;15.95;;;13.48;;
16401;SDS011;8310;44.626;11.176;2023-04-12T06:06:16;18.58;;;15.60;;
16401;SDS011;8310;44.626;11.176;2023-04-12T06:08:44;16.05;;;14.38;;
16401;SDS011;8310;44.626;11.176;2023-04-12T06:11:12;16.73;;;13.45;;
16401;SDS011;8310;44.626;11.176;2023-04-12T06:13:40;17.42;;;14.95;;
16401;SDS011;8310;44.626;11.176;2023-04-12T06:16:09;20.92;;;15.75;;
16401;SDS011;8310;44.626;11.176;2023-04-12T06:18:36;23.27;;;15.75;;
16401;SDS011;8310;44.626;11.176;2023-04-12T06:21:06;20.42;;;17.05;;
16401;SDS011;8310;44.626;11.176;2023-04-12T06:23:34;22.45;;;17.50;;
16401;SDS011;8310;44.626;11.176;2023-04-12T06:26:02;19.38;;;16.25;;
16401;SDS011;8310;44.626;11.176;2023-04-12T06:28:33;18.45;;;15.70;;
16401;SDS011;8310;44.626;11.176;2023-04-12T06:31:01;19.48;;;16.02;;
16401;SDS011;8310;44.626;11.176;2023-04-12T06:33:28;18.70;;;16.70;;
16401;SDS011;8310;44.626;11.176;2023-04-12T06:35:56;20.63;;;17.15;;
16401;SDS011;8310;44.626;11.176;2023-04-12T06:38:26;18.40;;;16.42;;
16401;SDS011;8310;44.626;11.176;2023-04-12T06:40:54;19.30;;;16.45;;
16401;SDS011;8310;44.626;11.176;2023-04-12T06:43:22;18.90;;;16.90;;
16401;SDS011;8310;44.626;11.176;2023-04-12T06:45:50;18.73;;;16.60;;
16401;SDS011;8310;44.626;11.176;2023-04-12T06:48:22;20.50;;;18.05;;
16401;SDS011;8310;44.626;11.176;2023-04-12T06:50:50;20.33;;;17.92;;
16401;SDS011;8310;44.626;11.176;2023-04-12T06:53:17;20.30;;;17.85;;
16401;SDS011;8310;44.626;11.176;2023-04-12T06:55:46;20.27;;;18.08;;
16401;SDS011;8310;44.626;11.176;2023-04-12T06:58:14;19.65;;;17.55;;
16401;SDS011;8310;44.626;11.176;2023-04-12T07:00:42;20.40;;;18.20;;
16401;SDS011;8310;44.626;11.176;2023-04-12T07:03:09;19.23;;;17.15;;
16401;SDS011;8310;44.626;11.176;2023-04-12T07:05:36;20.48;;;18.05;;
16401;SDS011;8310;44.626;11.176;2023-04-12T07:08:06;23.10;;;18.58;;
16401;SDS011;8310;44.626;11.176;2023-04-12T07:10:35;20.40;;;17.67;;
16401;SDS011;8310;44.626;11.176;2023-04-12T07:13:09;21.25;;;19.02;;
16401;SDS011;8310;44.626;11.176;2023-04-12T07:15:38;20.73;;;18.52;;
16401;SDS011;8310;44.626;11.176;2023-04-12T07:18:05;21.35;;;18.45;;
16401;SDS011;8310;44.626;11.176;2023-04-12T07:20:33;21.90;;;18.67;;
16401;SDS011;8310;44.626;11.176;2023-04-12T07:23:00;23.10;;;19.33;;
16401;SDS011;8310;44.626;11.176;2023-04-12T07:25:28;21.20;;;18.60;;
16401;SDS011;8310;44.626;11.176;2023-04-12T07:27:55;24.40;;;20.17;;
16401;SDS011;8310;44.626;11.176;2023-04-12T07:30:24;26.35;;;19.80;;
16401;SDS011;8310;44.626;11.176;2023-04-12T07:32:55;24.30;;;20.42;;
16401;SDS011;8310;44.626;11.176;2023-04-12T07:35:25;25.13;;;19.73;;
16401;SDS011;8310;44.626;11.176;2023-04-12T07:37:53;22.88;;;19.13;;
16401;SDS011;8310;44.626;11.176;2023-04-12T07:40:21;22.50;;;19.10;;
16401;SDS011;8310;44.626;11.176;2023-04-12T07:42:49;23.00;;;19.02;;
16401;SDS011;8310;44.626;11.176;2023-04-12T07:45:17;23.25;;;18.80;;
16401;SDS011;8310;44.626;11.176;2023-04-12T07:47:46;26.48;;;21.90;;
16401;SDS011;8310;44.626;11.176;2023-04-12T07:50:14;22.75;;;20.23;;
16401;SDS011;8310;44.626;11.176;2023-04-12T07:52:43;24.70;;;19.70;;
16401;SDS011;8310;44.626;11.176;2023-04-12T07:55:11;23.67;;;19.70;;
16401;SDS011;8310;44.626;11.176;2023-04-12T07:57:38;24.80;;;20.35;;
16401;SDS011;8310;44.626;11.176;2023-04-12T08:00:07;25.25;;;20.38;;
16401;SDS011;8310;44.626;11.176;2023-04-12T08:02:35;24.25;;;20.90;;
16401;SDS011;8310;44.626;11.176;2023-04-12T08:05:06;24.33;;;19.85;;
16401;SDS011;8310;44.626;11.176;2023-04-12T08:07:34;24.23;;;20.77;;
16401;SDS011;8310;44.626;11.176;2023-04-12T08:10:02;26.75;;;22.33;;
16401;SDS011;8310;44.626;11.176;2023-04-12T08:12:29;25.08;;;20.17;;
16401;SDS011;8310;44.626;11.176;2023-04-12T08:14:57;26.73;;;21.92;;
16401;SDS011;8310;44.626;11.176;2023-04-12T08:17:25;23.17;;;20.48;;
16401;SDS011;8310;44.626;11.176;2023-04-12T08:19:52;24.55;;;20.85;;
16401;SDS011;8310;44.626;11.176;2023-04-12T08:22:22;25.92;;;20.90;;
16401;SDS011;8310;44.626;11.176;2023-04-12T08:24:53;24.13;;;21.08;;
16401;SDS011;8310;44.626;11.176;2023-04-12T08:27:20;24.92;;;20.88;;
16401;SDS011;8310;44.626;11.176;2023-04-12T08:29:48;25.65;;;21.17;;
16401;SDS011;8310;44.626;11.176;2023-04-12T08:32:16;26.00;;;20.60;;
16401;SDS011;8310;44.626;11.176;2023-04-12T08:34:44;22.70;;;20.13;;
16401;SDS011;8310;44.626;11.176;2023-04-12T08:37:11;23.88;;;20.42;;
16401;SDS011;8310;44.626;11.176;2023-04-12T08:39:41;24.35;;;20.77;;
16401;SDS011;8310;44.626;11.176;2023-04-12T08:42:10;23.60;;;20.23;;
16401;SDS011;8310;44.626;11.176;2023-04-12T08:44:39;22.92;;;20.45;;
16401;SDS011;8310;44.626;11.176;2023-04-12T08:47:08;32.13;;;20.15;;
16401;SDS011;8310;44.626;11.176;2023-04-12T08:49:37;23.95;;;20.20;;
16401;SDS011;8310;44.626;11.176;2023-04-12T08:52:05;23.25;;;19.80;;
16401;SDS011;8310;44.626;11.176;2023-04-12T08:54:34;25.35;;;21.00;;
16401;SDS011;8310;44.626;11.176;2023-04-12T08:57:05;24.02;;;19.75;;
16401;SDS011;8310;44.626;11.176;2023-04-12T08:59:35;26.70;;;21.42;;
16401;SDS011;8310;44.626;11.176;2023-04-12T09:02:04;24.85;;;20.30;;
16401;SDS011;8310;44.626;11.176;2023-04-12T09:04:31;25.45;;;21.73;;
16401;SDS011;8310;44.626;11.176;2023-04-12T09:06:59;28.35;;;21.65;;
16401;SDS011;8310;44.626;11.176;2023-04-12T09:12:11;25.25;;;20.17;;
16401;SDS011;8310;44.626;11.176;2023-04-12T09:14:39;24.83;;;21.33;;
16401;SDS011;8310;44.626;11.176;2023-04-12T09:17:21;25.90;;;21.55;;
16401;SDS011;8310;44.626;11.176;2023-04-12T09:19:50;25.23;;;21.50;;
16401;SDS011;8310;44.626;11.176;2023-04-12T09:22:31;27.10;;;24.00;;
16401;SDS011;8310;44.626;11.176;2023-04-12T09:25:00;32.33;;;25.70;;
16401;SDS011;8310;44.626;11.176;2023-04-12T09:27:30;28.45;;;24.15;;
16401;SDS011;8310;44.626;11.176;2023-04-12T09:30:11;25.98;;;23.17;;
16401;SDS011;8310;44.626;11.176;2023-04-12T09:32:40;31.30;;;22.98;;
16401;SDS011;8310;44.626;11.176;2023-04-12T09:35:07;27.48;;;23.30;;
16401;SDS011;8310;44.626;11.176;2023-04-12T09:37:36;25.92;;;22.48;;
16401;SDS011;8310;44.626;11.176;2023-04-12T09:40:05;23.30;;;20.73;;
16401;SDS011;8310;44.626;11.176;2023-04-12T09:42:47;22.83;;;20.05;;
16401;SDS011;8310;44.626;11.176;2023-04-12T09:45:18;24.13;;;21.33;;
16401;SDS011;8310;44.626;11.176;2023-04-12T09:47:47;23.73;;;20.13;;
16401;SDS011;8310;44.626;11.176;2023-04-12T09:50:18;23.80;;;20.90;;
16401;SDS011;8310;44.626;11.176;2023-04-12T09:52:48;25.05;;;20.17;;
16401;SDS011;8310;44.626;11.176;2023-04-12T09:55:16;23.00;;;20.42;;
16401;SDS011;8310;44.626;11.176;2023-04-12T09:57:48;23.45;;;21.05;;
16401;SDS011;8310;44.626;11.176;2023-04-12T10:00:17;21.83;;;19.52;;
16401;SDS011;8310;44.626;11.176;2023-04-12T10:02:47;21.50;;;19.33;;
16401;SDS011;8310;44.626;11.176;2023-04-12T10:05:17;20.20;;;18.10;;
16401;SDS011;8310;44.626;11.176;2023-04-12T10:07:46;19.67;;;17.67;;
16401;SDS011;8310;44.626;11.176;2023-04-12T10:10:14;19.60;;;17.55;;
16401;SDS011;8310;44.626;11.176;2023-04-12T10:12:44;18.00;;;15.27;;
16401;SDS011;8310;44.626;11.176;2023-04-12T10:15:15;17.63;;;15.80;;
16401;SDS011;8310;44.626;11.176;2023-04-12T10:17:43;18.17;;;16.30;;
16401;SDS011;8310;44.626;11.176;2023-04-12T10:20:11;18.42;;;16.52;;
16401;SDS011;8310;44.626;11.176;2023-04-12T10:22:40;18.35;;;16.55;;
16401;SDS011;8310;44.626;11.176;2023-04-12T10:25:10;18.73;;;16.70;;
16401;SDS011;8310;44.626;11.176;2023-04-12T10:27:40;17.02;;;15.35;;
16401;SDS011;8310;44.626;11.176;2023-04-12T10:30:22;16.67;;;14.90;;
16401;SDS011;8310;44.626;11.176;2023-04-12T10:33:10;16.50;;;14.90;;
16401;SDS011;8310;44.626;11.176;2023-04-12T10:35:49;16.60;;;14.70;;
16401;SDS011;8310;44.626;11.176;2023-04-12T10:38:20;16.38;;;14.75;;
16401;SDS011;8310;44.626;11.176;2023-04-12T10:41:10;16.00;;;14.40;;
16401;SDS011;8310;44.626;11.176;2023-04-12T10:43:39;15.57;;;14.07;;
16401;SDS011;8310;44.626;11.176;2023-04-12T10:46:11;15.57;;;14.07;;
16401;SDS011;8310;44.626;11.176;2023-04-12T10:49:17;15.27;;;13.88;;
16401;SDS011;8310;44.626;11.176;2023-04-12T10:54:39;22.90;;;15.52;;
16401;SDS011;8310;44.626;11.176;2023-04-12T10:57:07;16.35;;;14.65;;
16401;SDS011;8310;44.626;11.176;2023-04-12T11:00:09;16.30;;;14.48;;
16401;SDS011;8310;44.626;11.176;2023-04-12T11:05:56;17.13;;;15.38;;
16401;SDS011;8310;44.626;11.176;2023-04-12T11:08:25;16.17;;;14.57;;
16401;SDS011;8310;44.626;11.176;2023-04-12T11:11:00;16.33;;;14.73;;
16401;SDS011;8310;44.626;11.176;2023-04-12T11:13:33;15.40;;;14.00;;
16401;SDS011;8310;44.626;11.176;2023-04-12T11:16:02;15.15;;;13.65;;
16401;SDS011;8310;44.626;11.176;2023-04-12T11:18:33;14.93;;;13.52;;
16401;SDS011;8310;44.626;11.176;2023-04-12T11:21:01;13.93;;;12.63;;
16401;SDS011;8310;44.626;11.176;2023-04-12T11:23:30;14.05;;;12.75;;
16401;SDS011;8310;44.626;11.176;2023-04-12T11:25:58;15.45;;;13.88;;
16401;SDS011;8310;44.626;11.176;2023-04-12T11:28:25;16.67;;;15.02;;
16401;SDS011;8310;44.626;11.176;2023-04-12T11:30:55;16.17;;;13.20;;
16401;SDS011;8310;44.626;11.176;2023-04-12T11:33:29;15.20;;;13.70;;
16401;SDS011;8310;44.626;11.176;2023-04-12T11:36:25;15.40;;;13.80;;
16401;SDS011;8310;44.626;11.176;2023-04-12T11:38:53;15.68;;;13.93;;
16401;SDS011;8310;44.626;11.176;2023-04-12T11:41:21;15.35;;;13.82;;
16401;SDS011;8310;44.626;11.176;2023-04-12T11:43:49;14.32;;;13.00;;
16401;SDS011;8310;44.626;11.176;2023-04-12T11:46:17;14.95;;;12.75;;
16401;SDS011;8310;44.626;11.176;2023-04-12T11:48:47;14.77;;;13.32;;
16401;SDS011;8310;44.626;11.176;2023-04-12T11:51:17;14.45;;;11.88;;
16401;SDS011;8310;44.626;11.176;2023-04-12T11:53:46;13.40;;;12.00;;
16401;SDS011;8310;44.626;11.176;2023-04-12T11:56:19;11.48;;;9.73;;
16401;SDS011;8310;44.626;11.176;2023-04-12T11:58:46;12.57;;;10.55;;
16401;SDS011;8310;44.626;11.176;2023-04-12T12:01:14;11.57;;;10.38;;
16401;SDS011;8310;44.626;11.176;2023-04-12T12:03:42;13.10;;;11.50;;
16401;SDS011;8310;44.626;11.176;2023-04-12T12:06:12;13.18;;;11.70;;
16401;SDS011;8310;44.626;11.176;2023-04-12T12:08:39;12.98;;;11.68;;
16401;SDS011;8310;44.626;11.176;2023-04-12T12:11:07;12.18;;;11.07;;
16401;SDS011;8310;44.626;11.176;2023-04-12T12:13:45;12.30;;;11.10;;
16401;SDS011;8310;44.626;11.176;2023-04-12T12:16:13;13.20;;;11.93;;
16401;SDS011;8310;44.626;11.176;2023-04-12T12:18:41;11.80;;;10.73;;
16401;SDS011;8310;44.626;11.176;2023-04-12T12:21:12;11.20;;;10.23;;
16401;SDS011;8310;44.626;11.176;2023-04-12T12:23:41;11.25;;;10.15;;
16401;SDS011;8310;44.626;11.176;2023-04-12T12:26:09;11.93;;;10.75;;
16401;SDS011;8310;44.626;11.176;2023-04-12T12:28:48;11.15;;;10.25;;
16401;SDS011;8310;44.626;11.176;2023-04-12T12:31:17;11.77;;;10.60;;
16401;SDS011;8310;44.626;11.176;2023-04-12T12:33:45;10.75;;;9.85;;
16401;SDS011;8310;44.626;11.176;2023-04-12T12:36:17;11.35;;;10.15;;
16401;SDS011;8310;44.626;11.176;2023-04-12T12:38:45;13.18;;;9.63;;
16401;SDS011;8310;44.626;11.176;2023-04-12T12:41:15;11.48;;;10.32;;
16401;SDS011;8310;44.626;11.176;2023-04-12T12:43:44;11.07;;;9.98;;
16401;SDS011;8310;44.626;11.176;2023-04-12T12:46:12;11.07;;;10.02;;
16401;SDS011;8310;44.626;11.176;2023-04-12T12:48:41;9.18;;;8.35;;
16401;SDS011;8310;44.626;11.176;2023-04-12T12:51:08;9.10;;;8.30;;
16401;SDS011;8310;44.626;11.176;2023-04-12T12:53:39;8.93;;;8.23;;
16401;SDS011;8310;44.626;11.176;2023-04-12T12:56:07;8.38;;;7.55;;
16401;SDS011;8310;44.626;11.176;2023-04-12T12:58:35;9.57;;;8.68;;
16401;SDS011;8310;44.626;11.176;2023-04-12T13:01:07;10.98;;;9.98;;
16401;SDS011;8310;44.626;11.176;2023-04-12T13:03:35;11.52;;;10.50;;
16401;SDS011;8310;44.626;11.176;2023-04-12T13:06:03;10.18;;;9.32;;
16401;SDS011;8310;44.626;11.176;2023-04-12T13:08:31;10.43;;;9.52;;
16401;SDS011;8310;44.626;11.176;2023-04-12T13:11:02;10.07;;;9.18;;
16401;SDS011;8310;44.626;11.176;2023-04-12T13:13:30;10.93;;;9.77;;
16401;SDS011;8310;44.626;11.176;2023-04-12T13:15:58;9.88;;;9.07;;
16401;SDS011;8310;44.626;11.176;2023-04-12T13:18:25;13.27;;;9.40;;
16401;SDS011;8310;44.626;11.176;2023-04-12T13:20:53;10.32;;;9.43;;
16401;SDS011;8310;44.626;11.176;2023-04-12T13:23:22;10.07;;;9.07;;
16401;SDS011;8310;44.626;11.176;2023-04-12T13:25:49;10.43;;;9.45;;
16401;SDS011;8310;44.626;11.176;2023-04-12T13:28:18;10.63;;;9.57;;
16401;SDS011;8310;44.626;11.176;2023-04-12T13:30:46;10.60;;;9.63;;
16401;SDS011;8310;44.626;11.176;2023-04-12T13:33:14;10.43;;;9.43;;
16401;SDS011;8310;44.626;11.176;2023-04-12T13:35:42;10.52;;;9.52;;
16401;SDS011;8310;44.626;11.176;2023-04-12T13:38:09;10.70;;;9.70;;
16401;SDS011;8310;44.626;11.176;2023-04-12T13:40:37;9.40;;;8.50;;
16401;SDS011;8310;44.626;11.176;2023-04-12T13:43:04;10.40;;;9.40;;
16401;SDS011;8310;44.626;11.176;2023-04-12T13:45:34;11.38;;;10.32;;
16401;SDS011;8310;44.626;11.176;2023-04-12T13:48:02;13.25;;;9.93;;
16401;SDS011;8310;44.626;11.176;2023-04-12T13:50:29;10.50;;;9.50;;
16401;SDS011;8310;44.626;11.176;2023-04-12T13:52:57;10.55;;;9.65;;
16401;SDS011;8310;44.626;11.176;2023-04-12T13:55:24;10.63;;;9.73;;
16401;SDS011;8310;44.626;11.176;2023-04-12T13:57:53;9.80;;;8.90;;
16401;SDS011;8310;44.626;11.176;2023-04-12T14:00:21;10.32;;;9.32;;
16401;SDS011;8310;44.626;11.176;2023-04-12T14:02:52;9.82;;;8.93;;
16401;SDS011;8310;44.626;11.176;2023-04-12T14:05:20;12.57;;;8.63;;
16401;SDS011;8310;44.626;11.176;2023-04-12T14:07:48;10.15;;;8.63;;
16401;SDS011;8310;44.626;11.176;2023-04-12T14:10:16;10.10;;;9.20;;
16401;SDS011;8310;44.626;11.176;2023-04-12T14:12:44;9.13;;;8.18;;
16401;SDS011;8310;44.626;11.176;2023-04-12T14:15:11;9.43;;;8.57;;
16401;SDS011;8310;44.626;11.176;2023-04-12T14:17:39;9.52;;;8.63;;
16401;SDS011;8310;44.626;11.176;2023-04-12T14:20:09;10.90;;;9.93;;
16401;SDS011;8310;44.626;11.176;2023-04-12T14:22:37;8.48;;;7.60;;
16401;SDS011;8310;44.626;11.176;2023-04-12T14:25:05;8.20;;;7.45;;
16401;SDS011;8310;44.626;11.176;2023-04-12T14:27:33;7.53;;;6.93;;
16401;SDS011;8310;44.626;11.176;2023-04-12T14:30:01;9.15;;;7.80;;
16401;SDS011;8310;44.626;11.176;2023-04-12T14:32:31;8.45;;;7.72;;
16401;SDS011;8310;44.626;11.176;2023-04-12T14:34:59;8.15;;;7.53;;
16401;SDS011;8310;44.626;11.176;2023-04-12T14:37:28;8.30;;;7.60;;
16401;SDS011;8310;44.626;11.176;2023-04-12T14:39:57;7.13;;;6.53;;
16401;SDS011;8310;44.626;11.176;2023-04-12T14:42:25;10.57;;;7.25;;
16401;SDS011;8310;44.626;11.176;2023-04-12T14:44:53;7.97;;;7.28;;
16401;SDS011;8310;44.626;11.176;2023-04-12T14:47:21;8.73;;;7.03;;
16401;SDS011;8310;44.626;11.176;2023-04-12T14:49:53;9.70;;;8.80;;